Time;durP1;ratioP1;P1;durP2;ratioP2;P2;SDS_P1;SDS_P2;PMS_P1;PMS_P2;Temp;Humidity;BMP_temperature;BMP_pressure;BME280_temperature;BME280_humidity;BME280_pressure;Samples;Min_cycle;Max_cycle;Signal;HPM_P1;HPM_P2
2023/05/03 00:02:07;;;;;;;4.00;2.70;;;9.70;99.90;;;;;;6283856;22;20397;-83
2023/05/03 00:04:33;;;;;;;8.67;2.83;;;9.70;99.90;;;;;;6283013;22;20529;-83
2023/05/03 00:07:02;;;;;;;7.37;3.33;;;;;;;;;;6283932;22;20415;-82
2023/05/03 00:09:29;;;;;;;3.67;3.43;;;9.60;99.90;;;;;;6291804;22;20401;-82
2023/05/03 00:11:56;;;;;;;3.50;2.77;;;9.50;99.90;;;;;;6293264;22;20409;-82
2023/05/03 00:14:23;;;;;;;10.10;3.50;;;9.40;99.90;;;;;;6290274;22;20422;-82
2023/05/03 00:16:50;;;;;;;4.47;4.07;;;9.40;99.90;;;;;;6284179;22;20405;-82
2023/05/03 00:19:18;;;;;;;5.70;3.90;;;9.50;99.90;;;;;;6285925;22;20409;-83
2023/05/03 00:21:45;;;;;;;10.80;5.80;;;9.40;99.90;;;;;;6301235;22;20495;-81
2023/05/03 00:24:13;;;;;;;6.23;3.83;;;9.40;99.90;;;;;;6302090;22;20455;-82
2023/05/03 00:26:40;;;;;;;5.90;3.40;;;9.50;1.00;;;;;;6303433;22;20397;-82
2023/05/03 00:29:07;;;;;;;6.67;4.67;;;9.30;99.90;;;;;;6302283;22;20419;-82
2023/05/03 00:31:34;;;;;;;5.10;3.40;;;9.30;99.90;;;;;;6298948;22;20439;-83
2023/05/03 00:34:01;;;;;;;3.97;3.60;;;9.30;99.90;;;;;;6295091;22;20421;-83
2023/05/03 00:36:27;;;;;;;4.37;3.73;;;9.20;99.90;;;;;;6291908;22;20437;-83
2023/05/03 00:38:55;;;;;;;5.17;3.00;;;9.30;99.90;;;;;;6287709;22;20406;-83
2023/05/03 00:41:23;;;;;;;3.77;3.07;;;9.30;99.90;;;;;;6285734;22;20395;-83
2023/05/03 00:43:50;;;;;;;6.93;3.13;;;9.30;99.90;;;;;;6294485;22;20498;-84
2023/05/03 00:46:17;;;;;;;7.47;3.23;;;9.20;99.90;;;;;;6291379;22;20415;-84
2023/05/03 00:48:44;;;;;;;4.23;2.53;;;9.00;99.90;;;;;;6286684;22;20724;-84
2023/05/03 00:51:14;;;;;;;5.33;2.90;;;9.10;99.90;;;;;;6286471;22;20401;-84
2023/05/03 00:53:42;;;;;;;3.80;3.00;;;8.90;99.90;;;;;;6286262;22;20456;-83
2023/05/03 00:56:10;;;;;;;4.60;3.30;;;9.00;99.90;;;;;;6287269;22;20440;-83
2023/05/03 00:58:39;;;;;;;3.27;2.87;;;9.00;99.90;;;;;;6290355;22;20773;-83
2023/05/03 01:01:06;;;;;;;5.70;3.40;;;9.00;99.90;;;;;;6290641;22;20383;-83
2023/05/03 01:03:35;;;;;;;4.70;3.27;;;8.90;99.90;;;;;;6287744;22;20421;-83
2023/05/03 01:06:17;;;;;;;4.10;3.10;;;8.90;99.90;;;;;;6287088;22;20437;-83
2023/05/03 01:08:51;;;;;;;3.17;2.87;;;8.70;99.90;;;;;;6286186;22;20368;-83
2023/05/03 01:11:22;;;;;;;5.00;3.20;;;8.70;99.90;;;;;;6285754;22;20447;-83
2023/05/03 01:13:56;;;;;;;4.97;3.10;;;8.50;99.90;;;;;;6285320;22;20421;-83
2023/05/03 01:16:30;;;;;;;4.47;3.03;;;8.50;99.90;;;;;;6292365;22;20394;-83
2023/05/03 01:19:01;;;;;;;6.87;4.17;;;8.50;99.90;;;;;;6296293;22;20453;-83
2023/05/03 01:21:29;;;;;;;5.83;3.23;;;8.40;99.90;;;;;;6297195;22;20393;-83
2023/05/03 01:24:07;;;;;;;3.83;3.13;;;8.40;99.90;;;;;;6295618;22;21016;-83
2023/05/03 01:26:36;;;;;;;5.53;2.80;;;8.30;99.90;;;;;;6295746;22;20444;-83
2023/05/03 01:29:02;;;;;;;3.37;3.07;;;8.30;99.90;;;;;;6294634;22;20409;-83
2023/05/03 01:31:33;;;;;;;9.37;4.30;;;8.10;99.90;;;;;;6288991;22;20401;-83
2023/05/03 01:34:13;;;;;;;4.70;4.40;;;8.20;99.90;;;;;;6287527;22;20437;-83
2023/05/03 01:36:43;;;;;;;4.10;3.70;;;8.20;99.90;;;;;;6288648;22;20385;-83
2023/05/03 01:39:16;;;;;;;4.20;3.60;;;8.20;99.90;;;;;;6287003;22;20390;-83
2023/05/03 01:41:46;;;;;;;5.13;3.20;;;8.10;99.90;;;;;;6286074;22;20396;-84
2023/05/03 01:44:15;;;;;;;4.87;3.50;;;8.00;99.90;;;;;;6289693;22;20392;-82
2023/05/03 01:46:43;;;;;;;6.63;4.17;;;8.00;99.90;;;;;;6305976;22;20456;-82
2023/05/03 01:49:10;;;;;;;5.40;3.27;;;8.10;1.00;;;;;;6298357;22;20395;-83
2023/05/03 01:51:36;;;;;;;7.80;3.70;;;8.00;99.90;;;;;;6283080;22;20398;-84
2023/05/03 01:54:03;;;;;;;5.93;3.70;;;8.10;1.00;;;;;;6284692;22;20488;-83
2023/05/03 01:56:31;;;;;;;6.23;3.73;;;7.80;99.90;;;;;;6284431;22;20488;-83
2023/05/03 01:58:59;;;;;;;3.20;2.87;;;7.70;1.00;;;;;;6293411;22;20403;-83
2023/05/03 02:01:26;;;;;;;5.27;3.93;;;7.40;99.90;;;;;;6285928;22;20437;-83
2023/05/03 02:03:53;;;;;;;3.23;2.93;;;7.60;99.90;;;;;;6286473;22;20420;-83
2023/05/03 02:06:20;;;;;;;6.40;3.33;;;7.80;1.00;;;;;;6284864;22;20446;-83
2023/05/03 02:08:47;;;;;;;4.50;3.17;;;7.90;1.00;;;;;;6285270;22;20380;-83
2023/05/03 02:11:13;;;;;;;5.33;3.33;;;7.80;1.00;;;;;;6284449;22;20413;-83
2023/05/03 02:13:40;;;;;;;4.30;4.00;;;7.80;1.00;;;;;;6286725;22;20425;-84
2023/05/03 02:16:09;;;;;;;5.30;2.80;;;8.00;99.90;;;;;;6285123;22;20386;-84
2023/05/03 02:18:36;;;;;;;4.13;3.53;;;7.70;1.00;;;;;;6285326;22;20376;-83
2023/05/03 02:21:04;;;;;;;4.53;3.43;;;7.90;71.50;;;;;;6284394;22;20409;-84
2023/05/03 02:23:31;;;;;;;3.87;2.33;;;7.60;1.00;;;;;;6283943;22;20438;-84
2023/05/03 02:25:58;;;;;;;8.43;3.23;;;7.60;1.00;;;;;;6284244;22;20501;-84
2023/05/03 02:28:25;;;;;;;7.60;3.47;;;7.30;99.90;;;;;;6283537;22;20387;-84
2023/05/03 02:30:51;;;;;;;8.17;3.40;;;7.60;1.00;;;;;;6284635;22;20443;-83
2023/05/03 02:33:20;;;;;;;8.13;3.70;;;7.60;1.00;;;;;;6284905;22;20478;-83
2023/05/03 02:35:47;;;;;;;5.20;2.90;;;7.50;99.90;;;;;;6284391;22;20924;-83
2023/05/03 02:38:14;;;;;;;5.87;3.23;;;7.50;1.00;;;;;;6284271;22;20433;-83
2023/05/03 02:40:41;;;;;;;3.70;3.23;;;7.50;1.00;;;;;;6286601;22;20409;-84
2023/05/03 02:43:08;;;;;;;3.60;3.30;;;7.80;99.90;;;;;;6293840;22;20432;-83
2023/05/03 02:45:36;;;;;;;6.00;3.27;;;7.50;1.00;;;;;;6292998;22;20444;-83
2023/05/03 02:48:03;;;;;;;5.88;3.60;;;7.40;1.00;;;;;;6289687;22;20409;-83
2023/05/03 02:50:31;;;;;;;4.13;3.00;;;7.40;1.00;;;;;;6287199;22;20174;-84
2023/05/03 02:52:58;;;;;;;6.53;3.50;;;7.20;1.00;;;;;;6285494;22;20439;-83
2023/05/03 02:55:25;;;;;;;7.10;3.20;;;7.20;99.90;;;;;;6284877;22;20440;-83
2023/05/03 02:57:52;;;;;;;6.23;3.50;;;7.20;1.00;;;;;;6285190;22;20797;-83
2023/05/03 03:00:19;;;;;;;5.90;3.10;;;7.30;1.00;;;;;;6288740;22;20789;-84
2023/05/03 03:02:46;;;;;;;7.35;3.50;;;7.20;1.00;;;;;;6288268;22;20178;-84
2023/05/03 03:05:13;;;;;;;3.38;3.00;;;7.40;1.00;;;;;;6291386;22;20194;-83
2023/05/03 03:07:41;;;;;;;9.27;3.47;;;7.10;1.00;;;;;;6291141;22;20182;-83
2023/05/03 03:10:09;;;;;;;6.27;4.20;;;7.00;1.00;;;;;;6291472;22;20431;-83
2023/05/03 03:12:36;;;;;;;9.93;4.17;;;6.70;99.90;;;;;;6290905;22;20409;-83
2023/05/03 03:15:03;;;;;;;3.23;2.83;;;7.00;99.90;;;;;;6290826;22;20489;-83
2023/05/03 03:17:31;;;;;;;6.60;4.20;;;7.00;99.90;;;;;;6293511;22;20405;-83
2023/05/03 03:19:58;;;;;;;7.67;3.40;;;7.00;1.00;;;;;;6293627;22;20401;-84
2023/05/03 03:22:25;;;;;;;5.20;3.37;;;6.90;1.00;;;;;;6293546;22;20412;-84
2023/05/03 03:24:53;;;;;;;5.63;3.60;;;6.90;1.00;;;;;;6291826;22;20429;-84
2023/05/03 03:27:22;;;;;;;5.88;3.92;;;6.90;1.00;;;;;;6286192;22;20458;-84
2023/05/03 03:29:48;;;;;;;4.33;3.93;;;7.00;1.00;;;;;;6285564;22;20202;-83
2023/05/03 03:32:15;;;;;;;4.50;3.70;;;7.00;1.00;;;;;;6291716;22;20488;-84
2023/05/03 03:34:42;;;;;;;4.00;3.00;;;7.00;1.00;;;;;;6290168;22;20421;-83
2023/05/03 03:37:09;;;;;;;7.18;3.70;;;7.00;1.00;;;;;;6288511;22;20174;-83
2023/05/03 03:39:38;;;;;;;5.97;2.95;;;7.00;1.00;;;;;;6302913;22;20178;-82
2023/05/03 03:42:07;;;;;;;6.78;3.15;;;7.00;1.00;;;;;;6301683;22;20174;-84
2023/05/03 03:44:34;;;;;;;4.67;3.70;;;6.90;99.90;;;;;;6296424;22;20222;-83
2023/05/03 03:47:01;;;;;;;6.20;3.65;;;7.30;1.00;;;;;;6284864;22;21020;-84
2023/05/03 03:49:27;;;;;;;4.90;4.32;;;7.00;1.00;;;;;;6285603;22;20182;-84
2023/05/03 03:51:54;;;;;;;4.60;3.40;;;6.90;1.00;;;;;;6288137;22;20179;-85
2023/05/03 03:54:21;;;;;;;8.77;3.70;;;6.90;1.00;;;;;;6304723;22;20409;-83
2023/05/03 03:56:49;;;;;;;4.60;3.87;;;6.80;1.00;;;;;;6306520;22;20166;-82
2023/05/03 03:59:18;;;;;;;4.32;3.05;;;6.80;1.00;;;;;;6301340;22;20393;-84
2023/05/03 04:01:45;;;;;;;6.82;3.70;;;6.80;1.00;;;;;;6292684;22;20236;-84
2023/05/03 04:04:11;;;;;;;4.75;4.00;;;7.00;1.00;;;;;;6284751;22;20198;-83
2023/05/03 04:06:38;;;;;;;6.00;3.20;;;6.90;1.00;;;;;;6285089;22;20593;-84
2023/05/03 04:09:12;;;;;;;4.93;3.70;;;6.90;1.00;;;;;;6286206;22;20492;-81
2023/05/03 04:11:40;;;;;;;9.57;3.80;;;6.90;1.00;;;;;;6294073;22;20186;-79
2023/05/03 04:14:06;;;;;;;6.28;3.58;;;6.90;1.00;;;;;;6301136;22;20222;-79
2023/05/03 04:16:35;;;;;;;4.57;4.20;;;6.80;1.00;;;;;;6300752;22;20198;-79
2023/05/03 04:19:02;;;;;;;6.47;3.87;;;6.90;1.00;;;;;;6300089;22;20409;-79
2023/05/03 04:21:29;;;;;;;12.00;3.47;;;7.30;99.90;;;;;;6301366;22;20416;-79
2023/05/03 04:23:56;;;;;;;6.28;3.78;;;;;;;;;;6300786;22;20437;-88
2023/05/03 04:26:24;;;;;;;8.40;3.33;;;;;;;;;;6305829;22;20186;-90
2023/05/03 04:28:51;;;;;;;4.90;3.60;;;;;;;;;;6304680;22;20162;-90
2023/05/03 04:31:20;;;;;;;17.05;10.43;;;;;;;;;;6306539;22;20413;-90
2023/05/03 04:33:49;;;;;;;7.80;3.90;;;6.90;99.90;;;;;;6306380;22;20183;-91
2023/05/03 04:36:16;;;;;;;3.77;3.43;;;;;;;;;;6306523;22;20457;-92
2023/05/03 04:38:43;;;;;;;4.40;3.92;;;;;;;;;;6305146;22;20397;-91
2023/05/03 04:41:13;;;;;;;7.57;3.97;;;;;;;;;;6305642;22;20177;-92
2023/05/03 04:43:42;;;;;;;5.15;3.55;;;6.70;99.90;;;;;;6301509;22;20401;-90
2023/05/03 04:46:10;;;;;;;4.10;3.70;;;7.30;5.60;;;;;;6298534;22;20185;-91
2023/05/03 04:48:37;;;;;;;6.87;3.53;;;;;;;;;;6306516;22;20166;-91
2023/05/03 04:51:09;;;;;;;12.65;3.75;;;7.80;99.90;;;;;;6298932;22;20952;-90
2023/05/03 04:53:36;;;;;;;10.73;3.70;;;;;;;;;;6289723;22;20199;-89
2023/05/03 04:56:03;;;;;;;8.80;4.37;;;;;;;;;;6286139;22;20447;-89
2023/05/03 04:58:31;;;;;;;5.97;3.17;;;;;;;;;;6285028;22;20428;-89
2023/05/03 05:00:58;;;;;;;6.60;3.88;;;;;;;;;;6285569;22;20244;-89
2023/05/03 05:03:30;;;;;;;6.55;3.63;;;;;;;;;;6286512;22;20178;-89
2023/05/03 05:05:57;;;;;;;5.57;3.77;;;;;;;;;;6286563;22;20245;-89
2023/05/03 05:08:26;;;;;;;6.03;3.90;;;7.20;1.00;;;;;;6293780;22;20409;-89
2023/05/03 05:10:53;;;;;;;6.07;4.40;;;6.70;99.90;;;;;;6305815;22;20405;-88
2023/05/03 05:13:20;;;;;;;8.57;3.90;;;;;;;;;;6305740;22;20168;-88
2023/05/03 05:15:47;;;;;;;6.03;4.00;;;;;;;;;;6297050;22;20181;-88
2023/05/03 05:18:20;;;;;;;10.20;3.90;;;;;;;;;;6293049;22;20409;-89
2023/05/03 05:20:50;;;;;;;11.53;4.50;;;6.80;1.00;;;;;;6294047;22;20404;-88
2023/05/03 05:23:17;;;;;;;10.13;4.50;;;;;;;;;;6291592;22;20394;-89
2023/05/03 05:25:48;;;;;;;19.60;4.57;;;7.40;1.00;;;;;;6290204;22;20428;-90
2023/05/03 05:28:15;;;;;;;3.70;3.40;;;;;;;;;;6291412;22;20761;-88
2023/05/03 05:30:42;;;;;;;6.40;3.20;;;;;;;;;;6292010;22;20402;-88
2023/05/03 05:33:10;;;;;;;13.83;5.00;;;;;;;;;;6290274;22;20473;-87
2023/05/03 05:35:37;;;;;;;18.33;6.17;;;;;;;;;;6290914;22;20473;-86
2023/05/03 05:38:04;;;;;;;12.17;4.27;;;;;;;;;;6291271;22;20405;-89
2023/05/03 05:40:31;;;;;;;7.93;3.90;;;7.80;1.00;;;;;;6291128;22;20409;-87
2023/05/03 05:43:02;;;;;;;7.70;4.20;;;;;;;;;;6290047;22;20405;-88
2023/05/03 05:45:41;;;;;;;6.77;3.60;;;;;;;;;;6289880;22;20452;-89
2023/05/03 05:48:16;;;;;;;6.67;3.97;;;7.90;99.90;;;;;;6288058;22;20754;-89
2023/05/03 05:50:47;;;;;;;4.10;3.57;;;;;;;;;;6288316;22;20412;-88
2023/05/03 05:53:17;;;;;;;7.03;3.90;;;;;;;;;;6289345;22;20691;-88
2023/05/03 05:55:45;;;;;;;9.13;3.90;;;;;;;;;;6292171;22;20374;-89
2023/05/03 05:58:16;;;;;;;8.53;4.87;;;;;;;;;;6290001;22;20466;-87
2023/05/03 06:00:47;;;;;;;6.93;4.50;;;;;;;;;;6287837;22;20516;-89
2023/05/03 06:03:14;;;;;;;10.20;4.60;;;;;;;;;;6305450;22;20391;-83
2023/05/03 06:05:41;;;;;;;5.50;4.17;;;8.20;99.90;;;;;;6305553;22;20385;-82
2023/05/03 06:08:08;;;;;;;5.53;3.60;;;8.30;1.00;;;;;;6301573;22;20416;-86
2023/05/03 06:10:35;;;;;;;4.40;3.10;;;7.40;99.90;;;;;;6297886;22;20376;-84
2023/05/03 06:13:02;;;;;;;7.17;4.07;;;8.10;99.90;;;;;;6297130;22;20413;-86
2023/05/03 06:15:30;;;;;;;9.80;4.40;;;8.00;99.90;;;;;;6297030;22;20421;-85
2023/05/03 06:17:57;;;;;;;7.10;3.80;;;8.70;26.70;;;;;;6296303;22;20372;-85
2023/05/03 06:20:25;;;;;;;4.13;3.83;;;8.60;83.90;;;;;;6296489;22;20393;-86
2023/05/03 06:22:52;;;;;;;6.43;3.83;;;;;;;;;;6296641;22;20443;-87
2023/05/03 06:25:19;;;;;;;10.93;4.80;;;8.70;99.90;;;;;;6301997;22;20429;-82
2023/05/03 06:27:46;;;;;;;9.30;3.93;;;8.40;1.00;;;;;;6303921;22;20456;-86
2023/05/03 06:30:13;;;;;;;5.47;3.90;;;8.70;99.90;;;;;;6300061;22;20428;-85
2023/05/03 06:32:42;;;;;;;10.40;3.67;;;8.80;99.90;;;;;;6298545;22;20401;-86
2023/05/03 06:35:09;;;;;;;8.40;3.30;;;9.00;1.00;;;;;;6301184;22;20432;-86
2023/05/03 06:37:36;;;;;;;5.70;3.13;;;8.90;99.90;;;;;;6301433;22;20393;-86
2023/05/03 06:40:05;;;;;;;9.63;4.30;;;9.50;1.00;;;;;;6302600;22;20416;-86
2023/05/03 06:42:32;;;;;;;5.13;3.20;;;9.40;1.00;;;;;;6302221;22;20401;-86
2023/05/03 06:44:59;;;;;;;3.93;3.30;;;;;;;;;;6301332;22;20451;-85
2023/05/03 06:47:26;;;;;;;9.30;3.97;;;9.20;99.90;;;;;;6292831;22;20440;-84
2023/05/03 06:49:54;;;;;;;4.50;3.00;;;9.10;99.90;;;;;;6288971;22;20428;-83
2023/05/03 06:52:21;;;;;;;5.80;3.00;;;9.20;99.90;;;;;;6287129;22;20440;-84
2023/05/03 06:54:48;;;;;;;8.53;3.00;;;9.30;99.90;;;;;;6284573;22;20435;-83
2023/05/03 06:57:15;;;;;;;4.40;2.80;;;9.30;99.90;;;;;;6282976;22;20377;-82
2023/05/03 06:59:51;;;;;;;3.13;2.80;;;9.30;99.90;;;;;;6281203;22;20405;-83
2023/05/03 07:02:20;;;;;;;4.70;2.60;;;9.40;99.90;;;;;;6285024;22;20393;-82
2023/05/03 07:04:46;;;;;;;4.13;2.83;;;9.30;1.00;;;;;;6284785;22;20516;-82
2023/05/03 07:07:15;;;;;;;7.47;3.20;;;9.30;99.90;;;;;;6285524;22;20441;-84
2023/05/03 07:09:42;;;;;;;2.97;2.17;;;9.50;99.90;;;;;;6285482;22;20420;-83
2023/05/03 07:12:09;;;;;;;8.33;2.20;;;9.80;1.00;;;;;;6301003;22;20416;-82
2023/05/03 07:14:36;;;;;;;7.13;2.53;;;9.60;99.90;;;;;;6305387;22;20451;-83
2023/05/03 07:17:03;;;;;;;10.33;2.63;;;9.60;1.00;;;;;;6291961;22;20421;-84
2023/05/03 07:19:29;;;;;;;4.50;3.10;;;9.70;99.90;;;;;;6288859;22;20874;-84
2023/05/03 07:22:02;;;;;;;3.23;2.27;;;9.90;99.90;;;;;;6261654;22;20405;-89
2023/05/03 07:24:31;;;;;;;5.13;3.23;;;;;;;;;;6290542;22;20436;-88
2023/05/03 07:27:02;;;;;;;5.27;2.67;;;;;;;;;;6290154;22;21016;-90
2023/05/03 07:29:32;;;;;;;4.97;2.87;;;;;;;;;;6287682;22;20420;-89
2023/05/03 07:32:00;;;;;;;3.10;2.57;;;;;;;;;;6293678;22;20405;-90
2023/05/03 07:34:27;;;;;;;3.10;2.40;;;;;;;;;;6304388;22;20421;-87
2023/05/03 07:36:54;;;;;;;4.40;2.80;;;;;;;;;;6306775;22;20359;-85
2023/05/03 07:39:21;;;;;;;6.60;2.63;;;;;;;;;;6306186;22;20427;-85
2023/05/03 07:41:50;;;;;;;5.90;3.50;;;9.90;1.00;;;;;;6306850;22;20405;-88
2023/05/03 07:44:17;;;;;;;5.57;3.00;;;;;;;;;;6305950;22;20420;-87
2023/05/03 07:46:44;;;;;;;4.77;4.20;;;10.10;99.90;;;;;;6306564;22;20429;-88
2023/05/03 07:49:11;;;;;;;5.57;2.80;;;;;;;;;;6303561;22;20413;-88
2023/05/03 07:51:39;;;;;;;8.17;3.80;;;11.30;1.00;;;;;;6296572;22;20460;-88
2023/05/03 07:54:10;;;;;;;6.27;3.87;;;;;;;;;;6288158;22;20436;-88
2023/05/03 07:56:36;;;;;;;5.20;3.60;;;11.40;99.90;;;;;;6305140;22;20385;-86
2023/05/03 07:59:05;;;;;;;4.23;3.00;;;;;;;;;;6306009;22;20372;-87
2023/05/03 08:01:32;;;;;;;7.63;3.43;;;;;;;;;;6301413;22;20396;-87
2023/05/03 08:03:59;;;;;;;3.40;3.10;;;10.40;99.90;;;;;;6299580;22;20413;-89
2023/05/03 08:06:27;;;;;;;3.13;2.93;;;10.90;1.00;;;;;;6302548;22;20385;-86
2023/05/03 08:08:54;;;;;;;4.27;3.87;;;;;;;;;;6293221;22;20400;-88
2023/05/03 08:11:20;;;;;;;4.07;3.00;;;10.50;99.90;;;;;;6295630;22;20401;-87
2023/05/03 08:13:47;;;;;;;3.93;3.53;;;10.30;1.00;;;;;;6296551;22;20443;-87
2023/05/03 08:16:16;;;;;;;4.83;2.60;;;10.40;99.90;;;;;;6293844;22;20405;-88
2023/05/03 08:18:43;;;;;;;3.50;3.17;;;;;;;;;;6294911;22;20472;-87
2023/05/03 08:21:12;;;;;;;6.37;3.10;;;10.40;99.90;;;;;;6290517;22;20443;-88
2023/05/03 08:23:39;;;;;;;6.97;3.03;;;;;;;;;;6291128;22;21383;-88
2023/05/03 08:26:08;;;;;;;5.70;3.20;;;;;;;;;;6293208;22;20390;-88
2023/05/03 08:28:35;;;;;;;7.97;3.67;;;;;;;;;;6306167;22;20408;-86
2023/05/03 08:31:03;;;;;;;6.63;3.53;;;;;;;;;;6304000;22;20416;-87
2023/05/03 08:33:32;;;;;;;3.60;3.30;;;;;;;;;;6305403;22;20456;-86
2023/05/03 08:35:59;;;;;;;5.33;4.03;;;;;;;;;;6304104;22;20713;-87
2023/05/03 08:38:26;;;;;;;3.77;3.20;;;10.60;99.90;;;;;;6294598;22;20424;-87
2023/05/03 08:40:57;;;;;;;3.37;3.07;;;10.50;99.90;;;;;;6293899;22;20405;-87
2023/05/03 08:43:24;;;;;;;2.73;2.53;;;;;;;;;;6290610;22;20399;-88
2023/05/03 08:45:51;;;;;;;3.93;2.73;;;;;;;;;;6293753;22;20401;-87
2023/05/03 08:48:19;;;;;;;3.60;3.30;;;10.90;99.90;;;;;;6298819;22;20456;-87
2023/05/03 08:50:50;;;;;;;5.97;3.20;;;10.70;1.00;;;;;;6292707;22;20409;-88
2023/05/03 08:53:17;;;;;;;7.63;3.43;;;10.80;1.00;;;;;;6295109;22;20393;-87
2023/05/03 08:55:44;;;;;;;5.37;3.10;;;;;;;;;;6302948;22;20401;-86
2023/05/03 08:58:11;;;;;;;4.10;3.80;;;;;;;;;;6306095;22;20388;-86
2023/05/03 09:00:40;;;;;;;7.80;3.50;;;10.90;1.00;;;;;;6305977;22;20393;-86
2023/05/03 09:03:07;;;;;;;3.47;3.17;;;;;;;;;;6291004;22;20405;-89
2023/05/03 09:05:39;;;;;;;4.00;3.60;;;11.40;99.90;;;;;;6290141;22;20425;-87
2023/05/03 09:08:09;;;;;;;4.27;3.00;;;11.40;99.90;;;;;;6291685;22;20433;-87
2023/05/03 09:10:39;;;;;;;6.37;3.00;;;11.40;99.90;;;;;;6295349;22;20755;-88
2023/05/03 09:13:06;;;;;;;7.97;2.80;;;;;;;;;;6303113;22;20427;-86
2023/05/03 09:15:34;;;;;;;3.40;3.00;;;;;;;;;;6303261;22;20437;-87
2023/05/03 09:18:09;;;;;;;10.13;3.00;;;11.60;1.00;;;;;;6291839;22;20575;-87
2023/05/03 09:20:37;;;;;;;7.50;3.27;;;11.40;99.90;;;;;;6289942;22;20491;-88
2023/05/03 09:23:05;;;;;;;7.20;3.17;;;;;;;;;;6290927;22;20404;-87
2023/05/03 09:25:43;;;;;;;4.33;2.83;;;11.50;99.90;;;;;;6294571;22;20510;-87
2023/05/03 09:28:10;;;;;;;4.13;2.70;;;;;;;;;;6293146;22;20437;-87
2023/05/03 09:30:37;;;;;;;3.73;3.30;;;;;;;;;;6294069;22;20408;-88
2023/05/03 09:33:05;;;;;;;6.70;3.27;;;;;;;;;;6290868;22;20433;-87
2023/05/03 09:35:32;;;;;;;4.00;2.90;;;11.60;99.90;;;;;;6289044;22;20456;-89
2023/05/03 09:37:59;;;;;;;5.27;3.57;;;;;;;;;;6287700;22;20412;-88
2023/05/03 09:40:26;;;;;;;3.90;3.50;;;12.00;1.00;;;;;;6290801;22;20416;-88
2023/05/03 09:43:07;;;;;;;6.50;4.50;;;;;;;;;;6292767;22;20424;-88
2023/05/03 09:45:35;;;;;;;4.90;3.47;;;11.30;99.90;;;;;;6305387;22;20411;-89
2023/05/03 09:48:03;;;;;;;4.60;3.53;;;;;;;;;;6305181;22;20411;-87
2023/05/03 09:50:32;;;;;;;4.37;3.43;;;11.60;99.90;;;;;;6305555;22;20405;-87
2023/05/03 09:53:02;;;;;;;4.80;3.10;;;11.70;99.90;;;;;;6298342;22;20419;-87
2023/05/03 09:55:32;;;;;;;3.97;3.10;;;11.70;99.90;;;;;;6295856;22;20431;-88
2023/05/03 09:57:59;;;;;;;5.57;4.73;;;;;;;;;;6293465;22;20408;-89
2023/05/03 10:00:35;;;;;;;5.00;3.80;;;11.70;99.90;;;;;;6294018;22;20428;-88
2023/05/03 10:03:07;;;;;;;7.40;3.80;;;11.70;99.90;;;;;;6296990;22;20396;-87
2023/05/03 10:05:41;;;;;;;7.60;3.13;;;11.80;99.90;;;;;;6291993;22;20807;-88
2023/05/03 10:08:10;;;;;;;10.80;3.43;;;12.10;99.90;;;;;;6292729;22;20511;-88
2023/05/03 10:10:40;;;;;;;6.40;3.27;;;12.10;99.90;;;;;;6296299;22;20421;-88
2023/05/03 10:13:08;;;;;;;11.33;3.60;;;;;;;;;;6297669;22;20386;-88
2023/05/03 10:15:37;;;;;;;4.13;3.43;;;12.50;99.90;;;;;;6305578;22;20418;-86
2023/05/03 10:18:06;;;;;;;4.00;3.27;;;12.40;99.90;;;;;;6301550;22;20405;-88
2023/05/03 10:20:38;;;;;;;2.70;2.60;;;12.40;99.90;;;;;;6294302;22;20409;-88
2023/05/03 10:23:09;;;;;;;3.43;3.13;;;12.20;99.90;;;;;;6294468;22;20439;-86
2023/05/03 10:25:38;;;;;;;5.23;2.67;;;12.40;99.90;;;;;;6284080;22;20468;-82
2023/05/03 10:28:06;;;;;;;9.13;3.20;;;12.30;99.90;;;;;;6281803;22;20455;-82
2023/05/03 10:30:34;;;;;;;4.23;3.67;;;12.40;99.90;;;;;;6281880;22;20809;-82
2023/05/03 10:33:32;;;;;;;3.97;2.50;;;12.40;99.90;;;;;;6284513;22;20412;-82
2023/05/03 10:36:04;;;;;;;3.80;2.53;;;12.50;99.90;;;;;;6261265;23;20467;-81
2023/05/03 10:38:31;;;;;;;3.33;2.70;;;12.70;99.90;;;;;;6260644;23;20449;-81
2023/05/03 10:41:02;;;;;;;4.60;2.40;;;12.70;99.90;;;;;;6262049;23;20406;-81
2023/05/03 10:43:42;;;;;;;3.80;2.97;;;12.50;99.90;;;;;;6262705;23;20388;-81
2023/05/03 10:46:29;;;;;;;3.60;2.90;;;12.80;99.90;;;;;;6261303;23;20410;-82
2023/05/03 10:49:16;;;;;;;8.40;3.60;;;12.80;99.90;;;;;;6266415;23;20433;-81
2023/05/03 10:51:44;;;;;;;7.20;3.57;;;12.70;99.90;;;;;;6270294;23;20458;-81
2023/05/03 10:54:11;;;;;;;9.13;2.70;;;12.90;1.00;;;;;;6271885;22;20430;-81
2023/05/03 10:56:48;;;;;;;5.53;2.80;;;12.60;99.90;;;;;;6267894;23;20465;-81
2023/05/03 10:59:15;;;;;;;6.47;2.90;;;12.90;1.00;;;;;;6271965;23;20379;-81
2023/05/03 11:01:44;;;;;;;4.53;2.90;;;13.10;1.00;;;;;;6272099;23;20394;-81
2023/05/03 11:04:19;;;;;;;6.03;3.20;;;13.00;99.90;;;;;;6269731;23;20421;-81
2023/05/03 11:06:50;;;;;;;4.00;2.90;;;13.00;99.90;;;;;;6255070;23;20473;-82
2023/05/03 11:09:17;;;;;;;6.73;3.10;;;13.00;99.90;;;;;;6253214;23;20430;-81
2023/05/03 11:11:44;;;;;;;5.90;2.97;;;12.90;99.90;;;;;;6252129;23;20825;-81
2023/05/03 11:14:12;;;;;;;4.80;3.07;;;13.30;1.00;;;;;;6251319;23;20418;-81
2023/05/03 11:16:46;;;;;;;4.63;2.80;;;12.90;1.00;;;;;;6253249;23;20413;-81
2023/05/03 11:19:14;;;;;;;5.20;3.63;;;13.20;99.90;;;;;;6250813;23;20403;-82
2023/05/03 11:21:41;;;;;;;5.13;2.87;;;13.40;1.00;;;;;;6250184;23;20448;-81
2023/05/03 11:24:09;;;;;;;7.50;3.27;;;13.00;1.00;;;;;;6251136;23;20437;-82
2023/05/03 11:26:37;;;;;;;3.40;3.10;;;13.30;99.90;;;;;;6252628;23;20449;-81
2023/05/03 11:29:04;;;;;;;3.70;3.40;;;13.50;99.90;;;;;;6251680;23;20509;-82
2023/05/03 11:31:31;;;;;;;5.67;3.90;;;13.50;99.90;;;;;;6251094;23;20481;-82
2023/05/03 11:33:59;;;;;;;4.23;2.93;;;13.70;99.90;;;;;;6251310;23;20426;-82
2023/05/03 11:36:26;;;;;;;6.00;3.60;;;13.70;1.00;;;;;;6249864;23;20413;-82
2023/05/03 11:38:53;;;;;;;6.30;3.03;;;13.70;99.90;;;;;;6250341;23;20464;-80
2023/05/03 11:41:22;;;;;;;6.33;3.40;;;13.80;99.90;;;;;;6251315;23;20413;-82
2023/05/03 11:43:49;;;;;;;3.57;3.00;;;13.30;1.00;;;;;;6252246;23;20735;-81
2023/05/03 11:46:20;;;;;;;6.50;4.60;;;13.40;99.90;;;;;;6249964;23;20406;-81
2023/05/03 11:48:47;;;;;;;4.73;3.10;;;13.60;99.90;;;;;;6250581;23;20426;-81
2023/05/03 11:51:16;;;;;;;4.13;3.40;;;13.50;99.90;;;;;;6256236;23;20420;-82
2023/05/03 11:53:43;;;;;;;3.00;2.80;;;13.70;1.00;;;;;;6254504;23;20413;-82
2023/05/03 11:56:14;;;;;;;4.30;3.90;;;14.20;1.00;;;;;;6258686;23;20409;-81
2023/05/03 11:58:52;;;;;;;8.37;3.10;;;14.00;99.90;;;;;;6260966;23;20694;-82
2023/05/03 12:01:20;;;;;;;8.50;4.20;;;13.80;1.00;;;;;;6255195;23;20454;-81
2023/05/03 12:03:48;;;;;;;4.97;3.03;;;14.30;1.00;;;;;;6254609;23;20493;-82
2023/05/03 12:06:16;;;;;;;5.73;3.20;;;14.00;99.90;;;;;;6254244;23;20405;-81
2023/05/03 12:08:44;;;;;;;4.47;3.27;;;13.90;1.00;;;;;;6254198;23;20434;-82
2023/05/03 12:11:11;;;;;;;3.20;2.43;;;13.90;99.90;;;;;;6251885;23;20429;-82
2023/05/03 12:13:39;;;;;;;3.40;3.10;;;14.10;1.00;;;;;;6257106;23;20398;-82
2023/05/03 12:16:08;;;;;;;3.53;3.20;;;14.20;1.00;;;;;;6264849;23;20416;-82
2023/05/03 12:18:50;;;;;;;6.50;3.13;;;14.20;99.90;;;;;;6266406;23;20429;-82
2023/05/03 12:21:17;;;;;;;4.33;3.00;;;14.30;99.90;;;;;;6255099;23;20429;-82
2023/05/03 12:23:45;;;;;;;3.53;2.60;;;14.30;1.00;;;;;;6253344;23;20548;-82
2023/05/03 12:26:12;;;;;;;3.93;3.00;;;14.50;99.90;;;;;;6252824;23;20442;-82
2023/05/03 12:28:38;;;;;;;5.43;3.10;;;14.40;99.90;;;;;;6252660;23;20437;-82
2023/05/03 12:31:07;;;;;;;8.37;3.33;;;14.40;99.90;;;;;;6252100;23;20463;-82
2023/05/03 12:33:34;;;;;;;3.60;2.50;;;14.10;1.00;;;;;;6252230;23;20464;-81
2023/05/03 12:36:02;;;;;;;3.00;2.40;;;14.40;99.90;;;;;;6258067;23;20445;-81
2023/05/03 12:38:29;;;;;;;6.50;3.67;;;14.50;99.90;;;;;;6259704;23;20405;-82
2023/05/03 12:40:56;;;;;;;3.77;3.20;;;14.70;99.90;;;;;;6254606;23;20805;-82
2023/05/03 12:43:23;;;;;;;4.50;3.40;;;14.80;99.90;;;;;;6252894;23;20410;-81
2023/05/03 12:45:50;;;;;;;3.83;3.03;;;15.00;99.90;;;;;;6256778;23;20464;-81
2023/05/03 12:48:18;;;;;;;3.83;3.10;;;15.00;99.90;;;;;;6255852;23;20529;-81
2023/05/03 12:50:45;;;;;;;6.03;3.17;;;14.30;1.00;;;;;;6254865;23;20402;-82
2023/05/03 12:53:12;;;;;;;7.80;3.90;;;14.60;99.90;;;;;;6252629;23;20414;-81
2023/05/03 12:55:39;;;;;;;3.73;2.70;;;14.70;99.90;;;;;;6251733;23;20425;-82
2023/05/03 12:58:06;;;;;;;4.67;3.40;;;14.70;99.90;;;;;;6251544;23;20434;-81
2023/05/03 13:00:33;;;;;;;7.97;3.37;;;15.10;1.00;;;;;;6252916;23;20924;-82
2023/05/03 13:03:00;;;;;;;6.03;2.90;;;14.80;99.90;;;;;;6252449;23;20402;-82
2023/05/03 13:05:28;;;;;;;3.07;2.77;;;15.00;99.90;;;;;;6254509;23;20434;-82
2023/05/03 13:07:56;;;;;;;4.63;2.73;;;15.10;1.00;;;;;;6260489;23;20417;-81
2023/05/03 13:10:23;;;;;;;3.17;2.87;;;15.00;99.90;;;;;;6272066;22;20473;-81
2023/05/03 13:12:50;;;;;;;4.27;2.50;;;15.00;99.90;;;;;;6260275;23;20456;-81
2023/05/03 13:15:17;;;;;;;3.83;2.30;;;;;;;;;;6261523;23;20430;-81
2023/05/03 13:17:44;;;;;;;2.93;2.50;;;14.90;1.00;;;;;;6263376;23;20433;-81
2023/05/03 13:20:12;;;;;;;4.03;2.50;;;15.10;99.90;;;;;;6258590;23;20430;-81
2023/05/03 13:22:40;;;;;;;4.97;2.83;;;15.70;1.00;;;;;;6256863;23;20479;-82
2023/05/03 13:25:08;;;;;;;4.33;2.83;;;15.30;99.90;;;;;;6253370;23;20586;-82